createdAt,value
2018-07-14T00:02:13.826Z,7.97
2018-07-14T00:04:42.831Z,8.30
2018-07-14T00:07:11.806Z,8.00
2018-07-14T00:09:40.779Z,8.50
2018-07-14T00:12:09.826Z,8.90
2018-07-14T00:14:38.762Z,8.33
2018-07-14T00:17:07.707Z,8.17
2018-07-14T00:19:36.649Z,8.23
2018-07-14T00:22:05.600Z,7.70
2018-07-14T00:24:34.535Z,7.50
2018-07-14T00:27:03.535Z,8.30
2018-07-14T00:29:32.452Z,8.50
2018-07-14T00:32:01.362Z,8.00
2018-07-14T00:34:30.315Z,7.30
2018-07-14T00:36:59.251Z,7.80
2018-07-14T00:39:28.199Z,7.93
2018-07-14T00:41:57.127Z,8.60
2018-07-14T00:44:26.097Z,7.93
2018-07-14T00:46:55.017Z,7.93
2018-07-14T00:49:23.910Z,10.33
2018-07-14T00:51:52.887Z,7.03
2018-07-14T00:54:21.838Z,6.90
2018-07-14T00:56:50.867Z,7.07
2018-07-14T00:59:19.830Z,8.13
2018-07-14T01:01:48.761Z,6.90
2018-07-14T01:04:17.704Z,11.97
2018-07-14T01:06:46.674Z,7.97
2018-07-14T01:09:15.782Z,7.83
2018-07-14T01:11:44.706Z,6.80
2018-07-14T01:14:14.023Z,6.40
2018-07-14T01:16:43.059Z,7.77
2018-07-14T01:19:12.034Z,7.57
2018-07-14T01:21:40.982Z,7.30
2018-07-14T01:24:09.909Z,7.87
2018-07-14T01:26:43.146Z,7.13
2018-07-14T01:29:12.770Z,6.93
2018-07-14T01:31:41.997Z,6.97
2018-07-14T01:34:10.994Z,9.43
2018-07-14T01:36:39.651Z,7.17
2018-07-14T01:39:09.082Z,10.60
2018-07-14T01:41:38.238Z,8.20
2018-07-14T01:44:07.234Z,8.07
2018-07-14T01:46:36.167Z,7.23
2018-07-14T01:49:04.823Z,7.30
2018-07-14T01:51:33.642Z,5.93
2018-07-14T01:54:02.595Z,7.20
2018-07-14T01:56:31.523Z,6.97
2018-07-14T01:59:00.467Z,6.10
2018-07-14T02:01:29.419Z,7.10
2018-07-14T02:03:58.354Z,6.83
2018-07-14T02:06:27.262Z,6.60
2018-07-14T02:08:56.243Z,6.53
2018-07-14T02:11:25.243Z,6.63
2018-07-14T02:13:54.204Z,6.43
2018-07-14T02:16:23.204Z,6.63
2018-07-14T02:18:52.128Z,7.50
2018-07-14T02:21:21.128Z,6.30
2018-07-14T02:23:50.053Z,5.73
2018-07-14T02:26:18.958Z,6.20
2018-07-14T02:28:48.446Z,6.80
2018-07-14T02:31:17.370Z,7.60
2018-07-14T02:33:46.366Z,6.37
2018-07-14T02:36:15.335Z,5.87
2018-07-14T02:38:44.277Z,7.53
2018-07-14T02:41:13.234Z,6.30
2018-07-14T02:43:42.138Z,6.80
2018-07-14T02:46:11.060Z,6.43
2018-07-14T02:48:40.015Z,6.47
2018-07-14T02:51:08.932Z,6.60
2018-07-14T02:53:37.862Z,6.67
2018-07-14T02:56:06.794Z,5.80
2018-07-14T02:58:35.744Z,7.00
2018-07-14T03:01:04.762Z,6.23
2018-07-14T03:03:33.703Z,5.67
2018-07-14T03:06:02.663Z,5.77
2018-07-14T03:08:31.603Z,6.00
2018-07-14T03:11:00.531Z,6.37
2018-07-14T03:13:29.507Z,5.93
2018-07-14T03:15:58.431Z,7.10
2018-07-14T03:18:27.363Z,6.00
2018-07-14T03:20:56.293Z,7.47
2018-07-14T03:23:25.246Z,6.17
2018-07-14T03:25:54.190Z,6.70
2018-07-14T03:28:23.185Z,6.70
2018-07-14T03:30:52.107Z,6.43
2018-07-14T03:33:21.152Z,7.00
2018-07-14T03:35:50.007Z,5.70
2018-07-14T03:38:18.891Z,6.00
2018-07-14T03:40:47.910Z,6.70
2018-07-14T03:43:16.859Z,6.50
2018-07-14T03:45:45.822Z,6.60
2018-07-14T03:48:14.733Z,8.33
2018-07-14T03:50:43.703Z,7.10
2018-07-14T03:53:12.724Z,6.40
2018-07-14T03:55:41.660Z,6.90
2018-07-14T03:58:10.617Z,6.43
2018-07-14T04:00:39.559Z,8.50
2018-07-14T04:03:08.490Z,5.83
2018-07-14T04:05:37.424Z,6.87
2018-07-14T04:08:06.380Z,6.80
2018-07-14T04:10:35.290Z,7.40
2018-07-14T04:13:04.270Z,7.30
2018-07-14T04:15:33.199Z,6.67
2018-07-14T04:18:04.347Z,6.70
2018-07-14T04:20:34.506Z,6.73
2018-07-14T04:23:03.507Z,7.30
2018-07-14T04:25:32.807Z,6.13
2018-07-14T04:28:02.247Z,6.07
2018-07-14T04:30:31.150Z,6.27
2018-07-14T04:33:00.076Z,6.50
2018-07-14T04:35:29.025Z,6.93
2018-07-14T04:37:57.964Z,8.30
2018-07-14T04:40:26.879Z,6.73
2018-07-14T04:42:55.857Z,6.83
2018-07-14T04:45:24.781Z,6.97
2018-07-14T04:47:53.701Z,6.13
2018-07-14T04:50:22.631Z,7.00
2018-07-14T04:52:51.804Z,6.57
2018-07-14T04:55:21.335Z,7.40
2018-07-14T04:57:50.307Z,6.87
2018-07-14T05:00:19.267Z,7.57
2018-07-14T05:02:48.250Z,6.73
2018-07-14T05:05:17.168Z,6.57
2018-07-14T05:07:46.079Z,6.20
2018-07-14T05:10:15.055Z,7.63
2018-07-14T05:12:44.007Z,5.60
2018-07-14T05:15:12.954Z,6.63
2018-07-14T05:17:41.922Z,6.50
2018-07-14T05:20:10.839Z,7.20
2018-07-14T05:22:39.778Z,6.83
2018-07-14T05:25:08.715Z,7.50
2018-07-14T05:27:37.697Z,7.33
2018-07-14T05:30:07.244Z,6.70
2018-07-14T05:32:36.187Z,6.13
2018-07-14T05:35:05.239Z,6.97
2018-07-14T05:37:34.167Z,5.73
2018-07-14T05:40:04.027Z,6.27
2018-07-14T05:42:32.971Z,7.03
2018-07-14T05:45:01.944Z,5.93
2018-07-14T05:47:30.914Z,6.80
2018-07-14T05:49:59.876Z,6.30
2018-07-14T05:52:28.776Z,5.80
2018-07-14T05:54:57.707Z,6.57
2018-07-14T05:57:26.652Z,8.13
2018-07-14T05:59:55.619Z,5.43
2018-07-14T06:02:24.558Z,5.60
2018-07-14T06:04:53.479Z,5.30
2018-07-14T06:07:22.426Z,6.03
2018-07-14T06:09:51.378Z,5.40
2018-07-14T06:12:20.306Z,5.20
2018-07-14T06:14:49.267Z,5.77
2018-07-14T06:17:18.236Z,5.23
2018-07-14T06:19:47.167Z,7.13
2018-07-14T06:22:16.175Z,5.57
2018-07-14T06:24:45.094Z,6.03
2018-07-14T06:27:14.248Z,5.70
2018-07-14T06:29:43.190Z,9.13
2018-07-14T06:32:12.157Z,5.13
2018-07-14T06:34:41.042Z,5.40
2018-07-14T06:37:10.011Z,5.50
2018-07-14T06:39:38.938Z,5.40
2018-07-14T06:42:07.904Z,5.30
2018-07-14T06:44:36.861Z,5.90
2018-07-14T06:47:05.885Z,5.03
2018-07-14T06:49:34.906Z,4.37
2018-07-14T06:52:03.867Z,5.33
2018-07-14T06:54:32.805Z,4.90
2018-07-14T06:57:01.715Z,4.90
2018-07-14T06:59:30.634Z,4.47
2018-07-14T07:01:59.589Z,5.43
2018-07-14T07:04:28.525Z,4.53
2018-07-14T07:06:57.458Z,5.70
2018-07-14T07:09:26.450Z,5.73
2018-07-14T07:11:55.494Z,5.13
2018-07-14T07:14:24.471Z,5.73
2018-07-14T07:16:53.439Z,5.23
2018-07-14T07:19:22.373Z,5.00
2018-07-14T07:21:51.327Z,5.00
2018-07-14T07:24:20.304Z,5.30
2018-07-14T07:26:49.258Z,5.60
2018-07-14T07:29:18.197Z,5.13
2018-07-14T07:31:47.138Z,6.00
2018-07-14T07:34:16.248Z,4.67
2018-07-14T07:36:45.230Z,4.73
2018-07-14T07:39:14.273Z,5.10
2018-07-14T07:41:43.202Z,5.27
2018-07-14T07:44:12.182Z,4.87
2018-07-14T07:46:41.153Z,8.57
2018-07-14T07:49:10.108Z,6.47
2018-07-14T07:51:39.098Z,4.83
2018-07-14T07:54:08.063Z,4.77
2018-07-14T07:56:37.100Z,5.47
2018-07-14T07:59:06.105Z,7.53
2018-07-14T08:01:34.787Z,6.63
2018-07-14T08:04:03.630Z,4.33
2018-07-14T08:06:32.609Z,6.30
2018-07-14T08:09:01.536Z,5.27
2018-07-14T08:11:30.534Z,3.87
2018-07-14T08:13:59.493Z,9.10
2018-07-14T08:16:28.410Z,4.70
2018-07-14T08:18:57.401Z,5.73
2018-07-14T08:21:26.367Z,6.73
2018-07-14T08:23:55.516Z,4.73
2018-07-14T08:26:24.936Z,4.97
2018-07-14T08:28:53.899Z,4.90
2018-07-14T08:31:22.818Z,4.97
2018-07-14T08:33:51.816Z,4.80
2018-07-14T08:36:20.790Z,4.87
2018-07-14T08:38:49.796Z,5.30
2018-07-14T08:41:18.744Z,6.30
2018-07-14T08:43:47.773Z,4.73
2018-07-14T08:46:16.826Z,4.80
2018-07-14T08:48:45.804Z,4.70
2018-07-14T08:51:14.868Z,5.47
2018-07-14T08:53:43.752Z,4.87
2018-07-14T08:56:12.696Z,5.23
2018-07-14T08:58:50.724Z,5.07
2018-07-14T09:01:20.049Z,5.27
2018-07-14T09:03:49.565Z,4.83
2018-07-14T09:06:18.524Z,6.00
2018-07-14T09:08:47.526Z,4.13
2018-07-14T09:11:16.495Z,4.13
2018-07-14T09:13:45.533Z,5.80
2018-07-14T09:16:14.505Z,4.30
2018-07-14T09:18:43.459Z,5.50
2018-07-14T09:21:12.558Z,4.57
2018-07-14T09:23:41.562Z,3.80
2018-07-14T09:26:10.534Z,3.67
2018-07-14T09:28:40.427Z,4.00
2018-07-14T09:31:09.458Z,5.90
2018-07-14T09:33:38.743Z,3.30
2018-07-14T09:36:07.718Z,6.50
2018-07-14T09:38:36.676Z,3.70
2018-07-14T09:41:05.764Z,4.97
2018-07-14T09:43:34.686Z,3.90
2018-07-14T09:46:03.663Z,4.30
2018-07-14T09:48:32.607Z,3.70
2018-07-14T09:51:01.588Z,4.60
2018-07-14T09:53:30.680Z,4.10
2018-07-14T09:55:59.614Z,3.50
2018-07-14T09:58:28.612Z,4.30
2018-07-14T10:01:03.015Z,4.37
2018-07-14T10:03:32.073Z,3.47
2018-07-14T10:06:01.136Z,4.33
2018-07-14T10:08:30.394Z,3.80
2018-07-14T10:10:59.332Z,3.40
2018-07-14T10:13:28.454Z,4.23
2018-07-14T10:15:57.909Z,4.30
2018-07-14T10:18:27.722Z,3.90
2018-07-14T10:22:30.306Z,4.70
2018-07-14T10:25:00.064Z,3.77
2018-07-14T10:27:29.783Z,3.73
2018-07-14T10:29:59.455Z,3.83
2018-07-14T10:32:29.138Z,4.70
2018-07-14T10:34:58.838Z,3.63
2018-07-14T10:37:28.535Z,3.90
2018-07-14T10:39:58.239Z,3.90
2018-07-14T10:42:27.982Z,4.00
2018-07-14T10:44:57.654Z,4.47
2018-07-14T10:47:27.082Z,5.20
2018-07-14T10:49:56.588Z,4.93
2018-07-14T10:52:26.266Z,8.13
2018-07-14T10:54:56.295Z,5.90
2018-07-14T10:57:25.998Z,3.83
2018-07-14T10:59:55.719Z,3.87
2018-07-14T11:02:25.402Z,4.40
2018-07-14T11:04:55.155Z,7.10
2018-07-14T11:07:24.830Z,4.40
2018-07-14T11:09:54.716Z,5.03
2018-07-14T11:12:24.414Z,4.27
2018-07-14T11:14:54.118Z,4.47
2018-07-14T11:17:23.815Z,4.93
2018-07-14T11:19:53.519Z,4.93
2018-07-14T11:22:23.205Z,4.33
2018-07-14T11:24:53.222Z,5.70
2018-07-14T11:27:22.962Z,5.87
2018-07-14T11:29:52.670Z,4.67
2018-07-14T11:32:22.363Z,4.30
2018-07-14T11:34:52.068Z,4.50
2018-07-14T11:37:21.781Z,4.00
2018-07-14T11:39:51.520Z,4.70
2018-07-14T11:42:21.247Z,4.63
2018-07-14T11:44:50.982Z,4.37
2018-07-14T11:47:20.671Z,4.20
2018-07-14T11:49:50.450Z,4.20
2018-07-14T11:52:20.121Z,4.10
2018-07-14T11:54:49.863Z,4.50
2018-07-14T11:57:19.542Z,3.90
2018-07-14T11:59:49.248Z,4.07
2018-07-14T12:02:18.987Z,4.20
2018-07-14T12:04:49.554Z,5.83
2018-07-14T12:07:19.335Z,3.97
2018-07-14T12:09:49.039Z,4.30
2018-07-14T12:12:19.282Z,4.63
2018-07-14T12:14:48.995Z,4.10
2018-07-14T12:17:18.715Z,3.60
2018-07-14T12:19:48.410Z,3.73
2018-07-14T12:22:18.325Z,3.73
2018-07-14T12:24:48.096Z,3.60
2018-07-14T12:27:17.876Z,4.13
2018-07-14T12:29:47.594Z,6.70
2018-07-14T12:32:17.138Z,4.72
2018-07-14T12:34:46.659Z,4.20
2018-07-14T12:37:16.370Z,4.00
2018-07-14T12:39:46.091Z,4.70
2018-07-14T12:42:15.890Z,4.20
2018-07-14T12:44:45.651Z,4.43
2018-07-14T12:47:15.380Z,5.37
2018-07-14T12:49:45.143Z,4.70
2018-07-14T12:52:14.919Z,5.67
2018-07-14T12:54:44.741Z,3.83
2018-07-14T12:57:14.702Z,4.83
2018-07-14T12:59:44.082Z,4.90
2018-07-14T13:02:13.751Z,4.77
2018-07-14T13:04:43.721Z,5.50
2018-07-14T13:07:13.628Z,5.10
2018-07-14T13:09:43.026Z,4.00
2018-07-14T13:12:12.528Z,4.00
2018-07-14T13:14:42.234Z,4.10
2018-07-14T13:17:12.316Z,3.27
2018-07-14T13:19:42.069Z,3.80
2018-07-14T13:22:11.958Z,3.77
2018-07-14T13:24:41.670Z,4.13
2018-07-14T13:27:11.503Z,3.97
2018-07-14T13:29:41.264Z,3.90
2018-07-14T13:32:10.982Z,6.13
2018-07-14T13:34:40.692Z,3.90
2018-07-14T13:37:10.471Z,3.67
2018-07-14T13:39:40.189Z,3.87
2018-07-14T13:42:09.915Z,4.77
2018-07-14T13:44:39.641Z,3.73
2018-07-14T13:47:09.384Z,5.27
2018-07-14T13:49:39.068Z,5.83
2018-07-14T13:52:09.024Z,3.60
2018-07-14T13:54:38.721Z,3.83
2018-07-14T13:57:08.459Z,4.00
2018-07-14T13:59:38.167Z,3.90
2018-07-14T14:02:07.965Z,3.63
2018-07-14T14:04:37.680Z,4.00
2018-07-14T14:07:07.345Z,3.90
2018-07-14T14:09:37.031Z,3.90
2018-07-14T14:12:07.279Z,3.83
2018-07-14T14:14:36.983Z,4.37
2018-07-14T14:17:06.656Z,4.33
2018-07-14T14:19:36.483Z,4.00
2018-07-14T14:22:06.438Z,3.90
2018-07-14T14:24:36.183Z,3.37
2018-07-14T14:27:06.198Z,4.40
2018-07-14T14:29:36.417Z,3.60
2018-07-14T14:32:06.155Z,3.80
2018-07-14T14:34:35.880Z,4.47
2018-07-14T14:37:05.613Z,4.40
2018-07-14T14:39:35.559Z,5.00
2018-07-14T14:42:05.247Z,4.70
2018-07-14T14:44:34.946Z,4.60
2018-07-14T14:47:04.664Z,4.20
2018-07-14T14:49:34.391Z,6.50
2018-07-14T14:52:04.706Z,4.17
2018-07-14T14:54:34.443Z,4.73
2018-07-14T14:57:04.197Z,4.07
2018-07-14T14:59:33.618Z,4.53
2018-07-14T15:02:03.137Z,6.33
2018-07-14T15:04:32.842Z,7.00
2018-07-14T15:07:02.550Z,5.17
2018-07-14T15:09:32.359Z,4.07
2018-07-14T15:12:02.114Z,4.73
2018-07-14T15:14:31.908Z,5.00
2018-07-14T15:17:01.599Z,5.67
2018-07-14T15:19:31.318Z,5.00
2018-07-14T15:22:01.060Z,5.47
2018-07-14T15:24:30.734Z,6.20
2018-07-14T15:27:00.443Z,7.90
2018-07-14T15:29:30.191Z,5.53
2018-07-14T15:31:59.887Z,5.80
2018-07-14T15:34:29.628Z,4.53
2018-07-14T15:36:59.351Z,7.80
2018-07-14T15:39:29.062Z,15.70
2018-07-14T15:41:58.783Z,11.50
2018-07-14T15:44:28.471Z,13.63
2018-07-14T15:46:58.162Z,4.60
2018-07-14T15:49:27.877Z,5.53
2018-07-14T15:51:57.550Z,8.50
2018-07-14T15:54:27.315Z,6.00
2018-07-14T15:56:57.011Z,7.53
2018-07-14T15:59:26.707Z,6.03
2018-07-14T16:01:56.516Z,7.57
2018-07-14T16:04:26.355Z,7.90
2018-07-14T16:06:56.105Z,10.20
2018-07-14T16:09:25.809Z,7.37
2018-07-14T16:11:55.596Z,10.43
2018-07-14T16:14:25.295Z,4.90
2018-07-14T16:16:55.020Z,4.03
2018-07-14T16:19:24.723Z,3.67
2018-07-14T16:21:54.435Z,4.20
2018-07-14T16:24:24.146Z,5.07
2018-07-14T16:26:53.863Z,6.00
2018-07-14T16:29:23.588Z,4.00
2018-07-14T16:31:53.301Z,3.70
2018-07-14T16:34:23.079Z,3.83
2018-07-14T16:36:52.840Z,11.63
2018-07-14T16:39:22.707Z,6.80
2018-07-14T16:41:52.514Z,8.00
2018-07-14T16:44:22.234Z,5.67
2018-07-14T16:46:52.027Z,4.93
2018-07-14T16:49:21.746Z,4.40
2018-07-14T16:51:51.491Z,4.90
2018-07-14T16:54:21.176Z,5.87
2018-07-14T16:56:50.895Z,6.23
2018-07-14T16:59:20.599Z,4.60
2018-07-14T17:01:50.342Z,4.43
2018-07-14T17:04:20.096Z,5.33
2018-07-14T17:06:49.891Z,4.60
2018-07-14T17:09:19.734Z,5.03
2018-07-14T17:11:49.447Z,4.63
2018-07-14T17:14:19.296Z,5.30
2018-07-14T17:16:49.069Z,5.33
2018-07-14T17:19:18.791Z,5.30
2018-07-14T17:21:48.503Z,6.23
2018-07-14T17:24:18.199Z,6.47
2018-07-14T17:26:47.915Z,5.07
2018-07-14T17:29:18.234Z,4.87
2018-07-14T17:31:48.020Z,4.70
2018-07-14T17:34:17.844Z,5.50
2018-07-14T17:36:47.559Z,5.60
2018-07-14T17:39:17.313Z,5.17
2018-07-14T17:41:47.024Z,7.10
2018-07-14T17:44:16.782Z,5.57
2018-07-14T17:46:46.455Z,5.70
2018-07-14T17:49:16.156Z,7.07
2018-07-14T17:51:45.899Z,6.20
2018-07-14T17:54:15.644Z,6.67
2018-07-14T17:56:45.367Z,7.23
2018-07-14T17:59:15.087Z,7.60
2018-07-14T18:01:44.847Z,7.63
2018-07-14T18:04:14.597Z,8.27
2018-07-14T18:06:44.290Z,8.90
2018-07-14T18:09:14.026Z,8.13
2018-07-14T18:11:43.716Z,10.00
2018-07-14T18:14:13.508Z,8.50
2018-07-14T18:16:43.171Z,7.87
2018-07-14T18:19:12.944Z,5.60
2018-07-14T18:21:42.690Z,7.10
2018-07-14T18:24:12.391Z,7.33
2018-07-14T18:26:42.129Z,10.23
2018-07-14T18:29:11.791Z,8.53
2018-07-14T18:31:41.573Z,8.40
2018-07-14T18:34:11.276Z,8.93
2018-07-14T18:36:41.108Z,7.90
2018-07-14T18:39:10.796Z,7.50
2018-07-14T18:41:40.517Z,10.13
2018-07-14T18:44:10.211Z,8.20
2018-07-14T18:46:39.919Z,9.77
2018-07-14T18:49:09.655Z,13.60
2018-07-14T18:51:39.367Z,9.87
2018-07-14T18:54:09.115Z,10.27
2018-07-14T18:56:38.801Z,9.70
2018-07-14T18:59:08.538Z,10.20
2018-07-14T19:01:38.295Z,14.53
2018-07-14T19:04:07.764Z,9.77
2018-07-14T19:06:37.306Z,11.50
2018-07-14T19:09:07.088Z,10.23
2018-07-14T19:11:36.805Z,9.87
2018-07-14T19:14:06.576Z,10.47
2018-07-14T19:16:36.255Z,10.10
2018-07-14T19:19:05.968Z,9.23
2018-07-14T19:21:35.854Z,9.17
2018-07-14T19:24:05.717Z,12.77
2018-07-14T19:26:35.478Z,8.90
2018-07-14T19:29:05.617Z,9.77
2018-07-14T19:31:35.325Z,9.10
2018-07-14T19:34:05.015Z,9.77
2018-07-14T19:36:34.738Z,8.93
2018-07-14T19:39:05.471Z,9.27
2018-07-14T19:41:35.279Z,9.83
2018-07-14T19:44:05.024Z,9.07
2018-07-14T19:46:34.727Z,9.30
2018-07-14T19:49:04.451Z,9.07
2018-07-14T19:51:34.195Z,9.90
2018-07-14T19:54:03.945Z,8.83
2018-07-14T19:56:33.685Z,9.00
2018-07-14T19:59:03.475Z,8.77
2018-07-14T20:01:33.520Z,9.80
2018-07-14T20:04:03.167Z,8.97
2018-07-14T20:06:32.920Z,9.43
2018-07-14T20:09:02.637Z,9.50
2018-07-14T20:11:32.346Z,9.43
2018-07-14T20:14:02.139Z,8.93
2018-07-14T20:16:31.802Z,9.60
2018-07-14T20:19:01.548Z,9.63
2018-07-14T20:21:31.306Z,10.17
2018-07-14T20:24:01.009Z,8.70
2018-07-14T20:26:30.730Z,9.67
2018-07-14T20:29:00.479Z,9.80
2018-07-14T20:31:30.216Z,9.23
2018-07-14T20:34:00.426Z,10.40
2018-07-14T20:36:30.170Z,9.70
2018-07-14T20:38:59.900Z,9.33
2018-07-14T20:41:29.760Z,9.50
2018-07-14T20:43:59.345Z,8.93
2018-07-14T20:46:29.272Z,9.20
2018-07-14T20:48:59.005Z,10.67
2018-07-14T20:51:28.761Z,11.00
2018-07-14T20:53:58.461Z,9.60
2018-07-14T20:56:28.188Z,10.63
2018-07-14T20:58:57.919Z,10.03
2018-07-14T21:01:27.627Z,10.33
2018-07-14T21:03:57.380Z,10.57
2018-07-14T21:06:27.087Z,11.27
2018-07-14T21:08:56.826Z,9.33
2018-07-14T21:11:26.528Z,10.60
2018-07-14T21:13:56.279Z,8.97
2018-07-14T21:16:25.965Z,9.60
2018-07-14T21:18:55.702Z,10.00
2018-07-14T21:21:25.596Z,10.00
2018-07-14T21:23:55.267Z,10.07
2018-07-14T21:26:25.740Z,10.77
2018-07-14T21:28:55.566Z,11.10
2018-07-14T21:31:25.282Z,10.40
2018-07-14T21:33:55.059Z,10.23
2018-07-14T21:36:24.732Z,10.47
2018-07-14T21:38:54.468Z,10.27
2018-07-14T21:41:24.166Z,10.27
2018-07-14T21:43:53.945Z,9.93
2018-07-14T21:46:23.631Z,10.33
2018-07-14T21:48:53.382Z,10.23
2018-07-14T21:51:23.080Z,10.17
2018-07-14T21:53:52.879Z,10.13
2018-07-14T21:56:22.583Z,9.53
2018-07-14T21:58:52.330Z,9.77
2018-07-14T22:01:27.319Z,11.07
2018-07-14T22:03:57.063Z,10.20
2018-07-14T22:06:26.819Z,10.13
2018-07-14T22:08:56.575Z,9.63
2018-07-14T22:11:26.271Z,8.87
2018-07-14T22:13:56.090Z,9.60
2018-07-14T22:16:25.803Z,10.33
2018-07-14T22:18:55.564Z,8.67
2018-07-14T22:21:25.406Z,16.30
2018-07-14T22:23:55.151Z,9.87
2018-07-14T22:26:25.072Z,10.23
2018-07-14T22:28:54.838Z,10.53
2018-07-14T22:31:24.588Z,10.00
2018-07-14T22:33:54.377Z,10.40
2018-07-14T22:36:24.089Z,12.03
2018-07-14T22:38:53.839Z,11.87
2018-07-14T22:41:23.592Z,12.63
2018-07-14T22:43:53.316Z,11.90
2018-07-14T22:46:23.053Z,11.20
2018-07-14T22:48:52.770Z,12.77
2018-07-14T22:51:22.490Z,11.57
2018-07-14T22:53:52.196Z,13.53
2018-07-14T22:56:21.942Z,13.50
2018-07-14T22:58:51.652Z,11.60
2018-07-14T23:01:21.376Z,11.93
2018-07-14T23:03:51.107Z,14.67
2018-07-14T23:06:20.855Z,12.47
2018-07-14T23:08:50.593Z,9.83
2018-07-14T23:11:20.304Z,11.87
2018-07-14T23:13:50.059Z,10.90
2018-07-14T23:16:19.785Z,10.10
2018-07-14T23:18:49.488Z,13.90
2018-07-14T23:21:19.227Z,10.77
2018-07-14T23:23:48.973Z,12.30
2018-07-14T23:26:18.661Z,10.80
2018-07-14T23:28:48.416Z,11.00
2018-07-14T23:31:18.270Z,10.50
2018-07-14T23:33:48.047Z,12.10
2018-07-14T23:36:17.791Z,11.87
2018-07-14T23:38:47.497Z,12.70
2018-07-14T23:41:17.233Z,11.73
2018-07-14T23:43:46.998Z,11.63
2018-07-14T23:46:16.708Z,11.00
2018-07-14T23:48:46.436Z,10.37
2018-07-14T23:51:16.190Z,12.17
2018-07-14T23:53:45.927Z,11.87
2018-07-14T23:56:15.795Z,11.50
2018-07-14T23:58:45.454Z,9.80
